Time;durP1;ratioP1;P1;durP2;ratioP2;P2;SDS_P1;SDS_P2;PMS_P1;PMS_P2;Temp;Humidity;BMP_temperature;BMP_pressure;BME280_temperature;BME280_humidity;BME280_pressure;Samples;Min_cycle;Max_cycle;Signal;HPM_P1;HPM_P2
2021/04/05 00:00:43;;;;;;;12.70;6.97;;;5.90;74.60;;;;;;3587053;39;20044;-58
2021/04/05 00:03:08;;;;;;;11.57;6.95;;;6.00;74.80;;;;;;3582882;39;20072;-58
2021/04/05 00:05:38;;;;;;;13.75;6.95;;;6.00;74.60;;;;;;3583508;40;20044;-58
2021/04/05 00:08:04;;;;;;;10.63;6.88;;;6.00;74.70;;;;;;3585625;40;20307;-58
2021/04/05 00:10:37;;;;;;;12.30;6.97;;;6.00;74.90;;;;;;3588859;39;20467;-58
2021/04/05 00:13:08;;;;;;;14.10;6.80;;;6.00;74.80;;;;;;3590673;40;20414;-58
2021/04/05 00:15:33;;;;;;;15.13;6.53;;;6.00;74.50;;;;;;3585487;40;20045;-58
2021/04/05 00:17:59;;;;;;;11.82;6.00;;;6.00;74.50;;;;;;3588554;40;20036;-57
2021/04/05 00:20:38;;;;;;;12.18;6.57;;;6.00;75.00;;;;;;3591682;40;20039;-58
2021/04/05 00:23:04;;;;;;;12.70;6.40;;;6.10;73.90;;;;;;3588728;40;20389;-58
2021/04/05 00:25:30;;;;;;;10.93;6.38;;;6.00;74.50;;;;;;3585644;40;20742;-58
2021/04/05 00:27:56;;;;;;;10.15;6.30;;;6.00;74.00;;;;;;3584068;40;20033;-56
2021/04/05 00:30:29;;;;;;;12.15;6.68;;;6.00;74.20;;;;;;3583450;40;20436;-58
2021/04/05 00:32:55;;;;;;;11.48;6.20;;;6.10;74.20;;;;;;3587858;40;20039;-59
2021/04/05 00:35:26;;;;;;;15.63;7.28;;;6.10;74.30;;;;;;3589871;40;20136;-58
2021/04/05 00:37:52;;;;;;;12.55;6.60;;;6.10;74.60;;;;;;3583075;40;20039;-58
2021/04/05 00:40:22;;;;;;;10.63;5.80;;;6.00;74.10;;;;;;3586288;40;20020;-58
2021/04/05 00:42:48;;;;;;;9.30;5.10;;;5.90;74.40;;;;;;3586679;40;20129;-58
2021/04/05 00:45:16;;;;;;;11.88;6.07;;;5.90;74.90;;;;;;3582807;40;20048;-59
2021/04/05 00:47:52;;;;;;;11.63;5.93;;;5.90;74.60;;;;;;3584959;40;20028;-58
2021/04/05 00:50:36;;;;;;;11.35;6.07;;;5.90;74.80;;;;;;3587750;40;20224;-58
2021/04/05 00:53:05;;;;;;;13.68;6.32;;;5.80;75.20;;;;;;3583151;40;20062;-58
2021/04/05 00:55:31;;;;;;;11.98;6.45;;;5.80;75.00;;;;;;3582684;40;20395;-58
2021/04/05 00:57:59;;;;;;;11.27;6.25;;;5.80;75.20;;;;;;3586747;39;20031;-58
2021/04/05 01:00:53;;;;;;;13.15;5.95;;;5.90;75.00;;;;;;3589397;39;20040;-58
2021/04/05 01:03:25;;;;;;;8.68;5.43;;;6.00;74.90;;;;;;3587238;39;20396;-58
2021/04/05 01:05:58;;;;;;;12.32;5.85;;;6.10;74.50;;;;;;3585969;40;20028;-59
2021/04/05 01:08:24;;;;;;;12.20;5.88;;;6.00;74.20;;;;;;3580798;40;20031;-58
2021/04/05 01:10:50;;;;;;;11.82;6.45;;;6.10;74.30;;;;;;3579052;40;20028;-58
2021/04/05 01:13:18;;;;;;;10.20;5.70;;;6.10;74.30;;;;;;3581960;40;20378;-57
2021/04/05 01:15:44;;;;;;;10.90;5.95;;;6.00;74.10;;;;;;3584909;39;20056;-58
2021/04/05 01:18:11;;;;;;;12.38;5.78;;;6.00;74.20;;;;;;3587329;39;20117;-57
2021/04/05 01:20:36;;;;;;;11.10;6.15;;;6.00;74.00;;;;;;3585371;39;20427;-59
2021/04/05 01:23:04;;;;;;;11.23;6.78;;;6.00;74.00;;;;;;3581474;40;20040;-57
2021/04/05 01:25:30;;;;;;;12.07;6.72;;;6.10;74.00;;;;;;3579642;40;20031;-57
2021/04/05 01:27:56;;;;;;;11.40;6.53;;;6.10;73.80;;;;;;3579039;40;20169;-58
2021/04/05 01:30:31;;;;;;;11.93;7.00;;;6.10;73.90;;;;;;3582144;40;20822;-59
2021/04/05 01:33:10;;;;;;;9.45;6.18;;;6.00;73.80;;;;;;3585081;40;20147;-58
2021/04/05 01:35:43;;;;;;;14.20;6.32;;;6.00;73.80;;;;;;3586750;39;20101;-58
2021/04/05 01:38:11;;;;;;;10.48;5.75;;;6.00;74.20;;;;;;3581217;40;20028;-58
2021/04/05 01:40:38;;;;;;;15.32;7.10;;;6.00;74.40;;;;;;3584557;40;20499;-58
2021/04/05 01:43:05;;;;;;;11.15;7.00;;;6.00;74.40;;;;;;3586933;39;20032;-59
2021/04/05 01:45:31;;;;;;;13.63;6.90;;;6.00;74.20;;;;;;3584917;39;20028;-58
2021/04/05 01:47:57;;;;;;;13.90;6.38;;;6.00;74.20;;;;;;3581909;39;20020;-58
2021/04/05 01:50:23;;;;;;;14.93;7.43;;;6.00;73.80;;;;;;3578448;40;20035;-58
2021/04/05 01:52:49;;;;;;;12.45;6.47;;;6.10;74.00;;;;;;3578910;40;20428;-57
2021/04/05 01:55:15;;;;;;;12.23;6.80;;;6.00;73.70;;;;;;3581977;40;20056;-58
2021/04/05 01:57:42;;;;;;;15.98;7.72;;;5.90;74.60;;;;;;3585415;39;20036;-58
2021/04/05 02:00:11;;;;;;;13.65;7.63;;;5.80;74.60;;;;;;3585032;40;20036;-59
2021/04/05 02:02:38;;;;;;;14.10;6.90;;;5.70;75.30;;;;;;3583404;40;20025;-58
2021/04/05 02:05:09;;;;;;;19.60;8.07;;;5.70;75.20;;;;;;3580780;40;20145;-58
2021/04/05 02:07:36;;;;;;;12.68;7.53;;;5.70;75.90;;;;;;3586216;40;20032;-58
2021/04/05 02:10:09;;;;;;;14.48;7.32;;;5.70;75.30;;;;;;3584916;39;20815;-58
2021/04/05 02:12:35;;;;;;;18.25;8.63;;;5.70;75.30;;;;;;3581274;40;20027;-58
2021/04/05 02:15:03;;;;;;;18.05;8.13;;;5.80;74.80;;;;;;3578814;40;20033;-58
2021/04/05 02:17:29;;;;;;;17.90;7.93;;;5.80;74.70;;;;;;3578576;40;20039;-58
2021/04/05 02:19:55;;;;;;;14.70;8.07;;;5.80;74.50;;;;;;3582324;40;20071;-58
2021/04/05 02:22:21;;;;;;;15.48;7.57;;;5.80;74.30;;;;;;3579566;40;20044;-58
2021/04/05 02:24:47;;;;;;;18.85;7.05;;;5.80;73.80;;;;;;3577463;40;20036;-58
2021/04/05 02:27:13;;;;;;;17.70;7.50;;;5.80;74.10;;;;;;3583433;40;20142;-58
2021/04/05 02:29:39;;;;;;;15.00;7.47;;;5.80;73.90;;;;;;3580409;40;20043;-58
2021/04/05 02:32:05;;;;;;;13.05;6.78;;;5.80;74.40;;;;;;3578348;40;20727;-60
2021/04/05 02:34:31;;;;;;;12.90;6.47;;;5.70;74.40;;;;;;3586598;40;20073;-61
2021/04/05 02:36:57;;;;;;;14.48;7.22;;;5.80;74.20;;;;;;3582269;40;20683;-58
2021/04/05 02:39:23;;;;;;;19.13;8.02;;;5.80;73.90;;;;;;3587167;40;20028;-58
2021/04/05 02:41:50;;;;;;;16.77;7.25;;;5.80;74.10;;;;;;3580356;40;20041;-57
2021/04/05 02:44:18;;;;;;;15.65;7.88;;;5.80;74.10;;;;;;3582718;40;20039;-58
2021/04/05 02:46:47;;;;;;;15.02;7.07;;;5.80;74.40;;;;;;3586090;40;20109;-58
2021/04/05 02:49:14;;;;;;;20.98;8.25;;;5.70;73.90;;;;;;3588557;39;20650;-58
2021/04/05 02:51:45;;;;;;;16.92;7.10;;;5.70;74.50;;;;;;3586364;39;20390;-58
2021/04/05 02:54:12;;;;;;;16.75;8.00;;;5.60;74.40;;;;;;3582625;40;20044;-58
2021/04/05 02:56:39;;;;;;;15.63;7.88;;;5.60;74.90;;;;;;3579472;40;20031;-58
2021/04/05 02:59:06;;;;;;;13.63;6.88;;;5.60;74.60;;;;;;3580231;40;20774;-58
2021/04/05 03:01:32;;;;;;;14.98;7.03;;;5.60;74.40;;;;;;3583501;39;20696;-57
2021/04/05 03:03:59;;;;;;;15.93;8.20;;;5.70;74.90;;;;;;3586220;39;20115;-58
2021/04/05 03:06:27;;;;;;;14.85;7.93;;;5.70;74.50;;;;;;3579114;40;20746;-58
2021/04/05 03:08:54;;;;;;;16.75;7.82;;;5.70;74.20;;;;;;3582852;40;20042;-58
2021/04/05 03:11:21;;;;;;;17.35;8.18;;;5.50;74.80;;;;;;3585025;40;20833;-56
2021/04/05 03:13:48;;;;;;;16.40;8.20;;;5.50;75.20;;;;;;3587309;39;20031;-58
2021/04/05 03:16:16;;;;;;;17.90;8.40;;;5.50;74.90;;;;;;3585253;39;20747;-58
2021/04/05 03:18:44;;;;;;;18.35;8.50;;;5.60;74.80;;;;;;3582564;39;20036;-58
2021/04/05 03:21:12;;;;;;;17.15;8.00;;;5.70;74.40;;;;;;3579614;40;20646;-58
2021/04/05 03:23:40;;;;;;;16.55;8.45;;;5.70;74.00;;;;;;3580022;40;20076;-58
2021/04/05 03:26:05;;;;;;;16.67;9.07;;;5.80;74.30;;;;;;3584765;39;20048;-58
2021/04/05 03:28:31;;;;;;;18.55;9.80;;;5.80;74.20;;;;;;3587418;39;20448;-58
2021/04/05 03:31:11;;;;;;;21.92;9.75;;;5.70;73.90;;;;;;3588671;39;20070;-59
2021/04/05 03:33:45;;;;;;;18.85;9.35;;;5.70;74.30;;;;;;3584056;40;20036;-58
2021/04/05 03:36:27;;;;;;;22.80;10.60;;;5.80;74.40;;;;;;3582363;40;20490;-58
2021/04/05 03:38:55;;;;;;;20.48;9.75;;;5.70;74.30;;;;;;3594070;39;20908;-57
2021/04/05 03:41:47;;;;;;;20.40;9.80;;;5.60;74.60;;;;;;3587372;39;20374;-59
2021/04/05 03:44:51;;;;;;;18.35;9.93;;;5.70;74.50;;;;;;3581730;39;20401;-58
2021/04/05 03:47:49;;;;;;;24.48;11.80;;;5.80;73.60;;;;;;3577958;40;20096;-58
2021/04/05 03:50:28;;;;;;;22.85;10.27;;;5.80;73.50;;;;;;3586854;39;20020;-58
2021/04/05 03:53:21;;;;;;;24.27;11.73;;;5.80;73.80;;;;;;3588586;39;20393;-58
2021/04/05 03:55:53;;;;;;;25.05;11.40;;;5.90;73.70;;;;;;3588434;39;20029;-58
2021/04/05 03:58:21;;;;;;;27.02;11.63;;;5.90;73.70;;;;;;3586255;39;20040;-58
2021/04/05 04:00:48;;;;;;;30.35;12.52;;;5.80;73.80;;;;;;3585902;39;20080;-58
2021/04/05 04:03:19;;;;;;;26.02;12.35;;;5.80;74.00;;;;;;3585953;39;20459;-58
2021/04/05 04:05:57;;;;;;;29.50;13.10;;;5.80;74.00;;;;;;3588681;39;20114;-58
2021/04/05 04:10:53;;;;;;;31.27;13.95;;;6.00;73.30;;;;;;3590004;39;20321;-57
2021/04/05 04:13:20;;;;;;;27.45;12.80;;;6.00;73.60;;;;;;3587666;39;20068;-58
2021/04/05 04:15:49;;;;;;;28.50;13.65;;;6.10;73.20;;;;;;3584512;39;20047;-59
2021/04/05 04:18:17;;;;;;;26.02;13.32;;;6.10;72.80;;;;;;3586150;39;20090;-58
2021/04/05 04:20:44;;;;;;;30.77;14.68;;;6.20;72.70;;;;;;3583752;39;20025;-58
2021/04/05 04:23:11;;;;;;;32.83;15.07;;;6.30;72.10;;;;;;3587815;39;20028;-58
2021/04/05 04:25:38;;;;;;;32.72;15.95;;;6.40;71.80;;;;;;3588471;39;20046;-58
2021/04/05 04:28:05;;;;;;;29.92;13.65;;;6.30;72.10;;;;;;3590695;39;20044;-58
2021/04/05 04:30:31;;;;;;;35.60;16.33;;;6.30;72.20;;;;;;3588656;39;20057;-58
2021/04/05 04:33:07;;;;;;;34.05;16.40;;;6.30;72.40;;;;;;3586254;39;20046;-58
2021/04/05 04:35:35;;;;;;;;;;;6.30;72.30;;;;;;3584945;39;20056;-57
2021/04/05 04:38:01;;;;;;;32.17;15.57;;;6.40;72.30;;;;;;3587162;39;19931;-56
2021/04/05 04:40:28;;;;;;;32.65;15.30;;;6.20;72.20;;;;;;3583922;39;20056;-58
2021/04/05 04:43:03;;;;;;;33.53;14.77;;;6.20;73.10;;;;;;3580522;40;20036;-58
2021/04/05 04:45:29;;;;;;;33.72;15.77;;;6.20;72.70;;;;;;3587773;39;20120;-58
2021/04/05 04:47:56;;;;;;;36.20;15.63;;;6.30;72.50;;;;;;3585605;39;20676;-58
2021/04/05 04:50:24;;;;;;;38.53;15.57;;;6.30;72.80;;;;;;3587027;39;20051;-58
2021/04/05 04:52:50;;;;;;;36.40;16.90;;;6.30;72.70;;;;;;3590858;39;20036;-58
2021/04/05 04:55:17;;;;;;;41.65;16.55;;;6.40;72.40;;;;;;3586319;39;20029;-58
2021/04/05 04:57:43;;;;;;;38.22;16.13;;;6.50;72.10;;;;;;3587871;39;20040;-58
2021/04/05 05:00:10;;;;;;;33.55;15.88;;;6.40;72.20;;;;;;3579415;40;20736;-57
2021/04/05 05:02:39;;;;;;;30.83;16.20;;;6.50;71.80;;;;;;3587889;39;20125;-58
2021/04/05 05:05:06;;;;;;;35.25;15.13;;;6.50;71.40;;;;;;3590610;39;20717;-58
2021/04/05 05:07:34;;;;;;;32.58;16.48;;;6.50;71.80;;;;;;3585620;39;20777;-57
2021/04/05 05:10:01;;;;;;;34.58;15.13;;;6.60;71.40;;;;;;3587007;39;20091;-58
2021/04/05 05:12:28;;;;;;;31.88;15.73;;;6.70;70.60;;;;;;3589229;39;20038;-59
2021/04/05 05:14:55;;;;;;;32.05;14.70;;;6.80;70.50;;;;;;3585902;39;20051;-59
2021/04/05 05:17:21;;;;;;;32.90;15.63;;;6.80;70.30;;;;;;3586571;39;20028;-58
2021/04/05 05:19:47;;;;;;;33.13;15.10;;;6.80;70.70;;;;;;3584666;39;20040;-59
2021/04/05 05:22:15;;;;;;;31.05;15.45;;;6.80;70.20;;;;;;3583045;39;20029;-58
2021/04/05 05:24:44;;;;;;;32.15;14.48;;;6.80;70.10;;;;;;3587043;39;20036;-58
2021/04/05 05:27:11;;;;;;;31.85;13.93;;;6.90;70.30;;;;;;3587242;39;20032;-59
2021/04/05 05:29:38;;;;;;;32.88;14.23;;;6.90;70.20;;;;;;3583427;39;20033;-58
2021/04/05 05:32:05;;;;;;;31.33;14.88;;;6.90;70.70;;;;;;3586964;39;20129;-59
2021/04/05 05:34:31;;;;;;;30.08;14.32;;;6.90;70.40;;;;;;3586118;39;20035;-58
2021/04/05 05:36:57;;;;;;;31.95;15.70;;;6.90;70.70;;;;;;3584557;39;20046;-59
2021/04/05 05:39:23;;;;;;;33.40;15.35;;;7.00;70.40;;;;;;3587012;39;20792;-58
2021/04/05 05:42:07;;;;;;;33.10;14.98;;;7.10;69.90;;;;;;3581656;39;20563;-58
2021/04/05 05:44:42;;;;;;;37.20;14.75;;;7.00;70.20;;;;;;3586101;39;20095;-57
2021/04/05 05:47:26;;;;;;;35.95;16.23;;;7.10;69.80;;;;;;3582805;39;20636;-57
2021/04/05 05:50:19;;;;;;;46.88;22.27;;;7.10;70.10;;;;;;3578618;40;20027;-58
2021/04/05 05:53:23;;;;;;;29.38;15.50;;;7.20;69.60;;;;;;3586244;39;20048;-58
2021/04/05 05:56:04;;;;;;;32.60;16.63;;;7.30;69.40;;;;;;3589465;39;20806;-60
2021/04/05 05:59:05;;;;;;;30.45;13.65;;;7.30;69.00;;;;;;3578085;40;20047;-59
2021/04/05 06:01:37;;;;;;;35.90;17.45;;;7.30;69.00;;;;;;3583960;40;20129;-59
2021/04/05 06:04:28;;;;;;;33.05;15.80;;;7.30;69.40;;;;;;3585115;39;20043;-59
2021/04/05 06:07:03;;;;;;;42.97;21.63;;;7.30;69.40;;;;;;3590332;39;20028;-60
2021/04/05 06:09:48;;;;;;;31.20;16.63;;;7.50;69.30;;;;;;3583988;39;20024;-59
2021/04/05 06:12:53;;;;;;;30.75;14.77;;;7.60;68.50;;;;;;3582949;39;20060;-63
2021/04/05 06:15:22;;;;;;;31.27;14.60;;;7.60;68.20;;;;;;3577274;40;20358;-63
2021/04/05 06:18:18;;;;;;;37.00;14.95;;;7.50;68.70;;;;;;3586913;39;20064;-62
2021/04/05 06:21:21;;;;;;;27.55;12.75;;;7.50;69.10;;;;;;3583633;39;20032;-63
2021/04/05 06:23:51;;;;;;;31.10;13.90;;;7.50;69.40;;;;;;3587455;39;20036;-63
2021/04/05 06:26:30;;;;;;;27.02;13.32;;;7.60;69.10;;;;;;3582419;39;20866;-62
2021/04/05 06:29:02;;;;;;;31.75;14.52;;;7.70;69.50;;;;;;3584431;39;20051;-63
2021/04/05 06:31:28;;;;;;;32.25;15.02;;;7.90;68.80;;;;;;3584056;39;20028;-62
2021/04/05 06:33:55;;;;;;;29.17;14.98;;;8.00;67.80;;;;;;3583009;39;20063;-63
2021/04/05 06:37:09;;;;;;;26.70;14.55;;;8.00;68.10;;;;;;3583812;39;20029;-63
2021/04/05 06:39:45;;;;;;;30.10;13.60;;;8.00;67.80;;;;;;3574939;40;20715;-63
2021/04/05 06:42:16;;;;;;;;;;;7.90;68.20;;;;;;3584317;39;20032;-63
2021/04/05 06:45:10;;;;;;;27.60;13.35;;;7.90;68.50;;;;;;3590637;39;19927;-63
2021/04/05 06:48:13;;;;;;;29.08;13.77;;;8.00;68.50;;;;;;3583958;39;20037;-63
2021/04/05 06:50:51;;;;;;;30.33;13.82;;;8.00;67.90;;;;;;3587758;39;20038;-64
2021/04/05 06:54:03;;;;;;;27.60;13.48;;;8.10;67.90;;;;;;3583626;39;20033;-63
2021/04/05 06:57:02;;;;;;;25.55;12.18;;;8.10;68.30;;;;;;3583228;39;20046;-62
2021/04/05 06:59:46;;;;;;;37.67;13.27;;;8.00;68.20;;;;;;3587724;39;20043;-63
2021/04/05 07:02:35;;;;;;;26.75;13.07;;;7.90;68.50;;;;;;3584792;39;20039;-62
2021/04/05 07:05:34;;;;;;;29.05;13.38;;;7.90;68.40;;;;;;3579186;39;20044;-62
2021/04/05 07:08:12;;;;;;;28.02;13.35;;;8.10;68.50;;;;;;3582234;39;20137;-61
2021/04/05 07:10:44;;;;;;;33.22;14.13;;;8.20;68.60;;;;;;3584625;39;20059;-62
2021/04/05 07:13:31;;;;;;;31.73;14.25;;;8.20;69.80;;;;;;3588826;39;20640;-67
2021/04/05 07:16:07;;;;;;;31.00;13.73;;;8.10;69.60;;;;;;3581740;40;20413;-63
2021/04/05 07:19:01;;;;;;;30.20;14.90;;;8.10;71.10;;;;;;3586532;39;20036;-63
2021/04/05 07:22:04;;;;;;;40.63;14.95;;;8.20;71.10;;;;;;3587046;39;20141;-62
2021/04/05 07:24:49;;;;;;;27.05;14.23;;;8.10;72.20;;;;;;3581913;39;20320;-62
2021/04/05 07:27:39;;;;;;;31.10;14.73;;;8.00;72.90;;;;;;3585077;39;20583;-61
2021/04/05 07:30:24;;;;;;;33.17;15.35;;;8.00;72.50;;;;;;3585805;39;20047;-62
2021/04/05 07:33:02;;;;;;;32.05;15.70;;;7.80;73.50;;;;;;3586933;39;20624;-62
2021/04/05 07:35:52;;;;;;;29.20;15.00;;;7.80;75.60;;;;;;3585025;39;20033;-62
2021/04/05 07:38:17;;;;;;;33.72;18.35;;;7.70;75.30;;;;;;3587858;39;20047;-62
2021/04/05 07:40:50;;;;;;;31.75;15.35;;;7.80;76.30;;;;;;3584872;39;20866;-64
2021/04/05 07:43:34;;;;;;;36.40;16.48;;;7.80;76.00;;;;;;3588122;39;20523;-63
2021/04/05 07:46:11;;;;;;;41.75;21.38;;;7.80;75.80;;;;;;3587394;39;20099;-63
2021/04/05 07:48:43;;;;;;;29.27;14.55;;;7.80;76.40;;;;;;3586114;39;20020;-63
2021/04/05 07:51:13;;;;;;;31.98;15.20;;;7.80;75.90;;;;;;3588951;39;20024;-63
2021/04/05 07:53:49;;;;;;;33.17;15.70;;;7.80;76.70;;;;;;3579883;40;20100;-64
2021/04/05 07:56:21;;;;;;;32.42;14.93;;;7.80;76.20;;;;;;3586162;39;20090;-62
2021/04/05 07:59:22;;;;;;;32.95;15.02;;;7.70;77.10;;;;;;3582632;40;20044;-62
2021/04/05 08:02:15;;;;;;;34.30;16.17;;;7.50;77.60;;;;;;3585659;40;20503;-62
2021/04/05 08:05:15;;;;;;;25.27;13.50;;;7.50;79.20;;;;;;3587361;39;20028;-62
2021/04/05 08:07:53;;;;;;;32.55;15.20;;;7.40;80.60;;;;;;3581725;39;20036;-62
2021/04/05 08:10:22;;;;;;;31.60;14.27;;;7.50;80.20;;;;;;3588529;39;20056;-62
2021/04/05 08:13:03;;;;;;;35.25;15.82;;;7.40;80.80;;;;;;3588541;39;20027;-62
2021/04/05 08:16:20;;;;;;;35.00;15.63;;;7.40;81.20;;;;;;3587575;39;20099;-62
2021/04/05 08:18:57;;;;;;;35.10;15.82;;;7.40;82.40;;;;;;3585284;39;20050;-63
2021/04/05 08:21:32;;;;;;;37.78;15.20;;;7.40;82.90;;;;;;3585354;39;20024;-63
2021/04/05 08:24:23;;;;;;;36.05;16.27;;;7.30;83.00;;;;;;3592225;39;20051;-63
2021/04/05 08:26:54;;;;;;;34.05;16.40;;;7.30;83.80;;;;;;3583974;39;20042;-63
2021/04/05 08:29:32;;;;;;;40.60;17.30;;;7.10;84.60;;;;;;3583225;40;20134;-63
2021/04/05 08:32:04;;;;;;;33.78;16.50;;;7.20;85.60;;;;;;3585173;39;20040;-62
2021/04/05 08:34:50;;;;;;;40.25;17.08;;;7.30;85.10;;;;;;3585351;39;20321;-63
2021/04/05 08:37:45;;;;;;;33.63;17.15;;;7.30;84.80;;;;;;3588826;39;20028;-62
2021/04/05 08:40:18;;;;;;;32.97;16.55;;;7.20;84.80;;;;;;3580607;40;20032;-62
2021/04/05 08:43:02;;;;;;;40.60;16.02;;;7.10;84.60;;;;;;3581493;39;20044;-64
2021/04/05 08:45:53;;;;;;;37.72;16.90;;;7.10;85.60;;;;;;3584955;39;20028;-65
2021/04/05 08:48:20;;;;;;;38.08;16.85;;;7.10;85.30;;;;;;3585058;39;20044;-62
2021/04/05 08:50:58;;;;;;;37.55;16.45;;;7.10;85.10;;;;;;3592334;39;20066;-63
2021/04/05 08:53:24;;;;;;;40.05;18.60;;;7.10;86.00;;;;;;3581604;40;20036;-63
2021/04/05 08:55:52;;;;;;;40.08;16.63;;;7.20;85.80;;;;;;3584517;40;20040;-63
2021/04/05 08:58:40;;;;;;;37.35;15.95;;;7.20;85.50;;;;;;3588420;39;20024;-63
2021/04/05 09:01:11;;;;;;;40.28;17.95;;;7.20;85.60;;;;;;3585358;39;20036;-63
2021/04/05 09:03:37;;;;;;;40.38;16.88;;;7.30;86.10;;;;;;3585245;39;20039;-63
2021/04/05 09:06:11;;;;;;;41.67;18.90;;;7.40;85.30;;;;;;3585927;39;20024;-63
2021/04/05 09:08:38;;;;;;;43.10;19.70;;;7.30;85.70;;;;;;3579650;40;20040;-63
2021/04/05 09:11:05;;;;;;;42.45;18.17;;;7.30;85.40;;;;;;3586100;39;20036;-62
2021/04/05 09:13:47;;;;;;;43.45;17.27;;;7.30;85.80;;;;;;3586768;39;20028;-62
2021/04/05 09:16:43;;;;;;;34.20;16.33;;;7.40;85.90;;;;;;3582591;39;20033;-63
2021/04/05 09:19:20;;;;;;;31.45;14.82;;;7.40;85.50;;;;;;3587985;39;20041;-63
2021/04/05 09:21:52;;;;;;;27.33;11.40;;;7.50;84.80;;;;;;3579904;40;20036;-63
2021/04/05 09:24:55;;;;;;;21.30;9.55;;;7.50;85.00;;;;;;3586475;40;20028;-65
2021/04/05 09:27:54;;;;;;;18.73;9.73;;;7.60;85.50;;;;;;3586345;39;20024;-62
2021/04/05 09:30:56;;;;;;;7.45;2.92;;;7.50;85.50;;;;;;3585519;39;20036;-62
2021/04/05 09:33:58;;;;;;;8.70;4.38;;;7.50;82.30;;;;;;3587816;39;20065;-63
2021/04/05 09:36:45;;;;;;;7.82;4.18;;;7.40;83.30;;;;;;3588283;39;20035;-63
2021/04/05 09:39:36;;;;;;;2.45;1.30;;;7.40;83.40;;;;;;3590954;39;20024;-62
2021/04/05 09:42:44;;;;;;;2.83;1.60;;;7.40;82.80;;;;;;3582875;39;20325;-62
2021/04/05 09:45:15;;;;;;;3.38;1.38;;;7.40;81.00;;;;;;3584992;39;20039;-62
2021/04/05 09:48:03;;;;;;;1.58;0.73;;;7.20;82.90;;;;;;3584157;39;20036;-62
2021/04/05 09:50:38;;;;;;;2.35;1.35;;;7.10;82.30;;;;;;3581774;39;20056;-62
2021/04/05 09:53:31;;;;;;;1.35;0.57;;;7.10;81.30;;;;;;3584555;39;20072;-63
2021/04/05 09:56:05;;;;;;;2.03;0.82;;;7.00;82.00;;;;;;3584562;39;20076;-62
2021/04/05 09:58:43;;;;;;;2.00;1.00;;;7.00;82.60;;;;;;3586609;39;20408;-63
2021/04/05 10:01:30;;;;;;;2.03;1.20;;;7.10;82.20;;;;;;3584040;39;20506;-63
2021/04/05 10:04:11;;;;;;;0.77;0.68;;;7.30;82.40;;;;;;3589019;39;20039;-62
2021/04/05 10:06:38;;;;;;;3.90;1.63;;;7.40;81.40;;;;;;3585240;39;20032;-63
2021/04/05 10:09:06;;;;;;;2.55;1.27;;;7.50;80.60;;;;;;3581713;39;20713;-63
2021/04/05 10:11:36;;;;;;;2.22;1.42;;;7.60;79.80;;;;;;3587191;39;20651;-62
2021/04/05 10:14:07;;;;;;;0.68;0.65;;;7.60;80.10;;;;;;3583123;39;20043;-62
2021/04/05 10:16:35;;;;;;;0.98;0.88;;;7.70;79.50;;;;;;3584362;39;20035;-63
2021/04/05 10:19:06;;;;;;;0.85;0.80;;;7.60;79.50;;;;;;3582741;40;20473;-62
2021/04/05 10:21:36;;;;;;;2.00;1.15;;;7.70;80.10;;;;;;3583701;39;20127;-62
2021/04/05 10:24:04;;;;;;;2.53;1.10;;;7.80;80.20;;;;;;3582602;40;20055;-64
2021/04/05 10:26:33;;;;;;;1.27;0.93;;;7.90;80.00;;;;;;3584323;39;20133;-63
2021/04/05 10:29:01;;;;;;;1.30;1.00;;;8.00;79.20;;;;;;3582761;39;20029;-62
2021/04/05 10:31:29;;;;;;;1.48;1.25;;;8.10;76.60;;;;;;3587215;39;20048;-62
2021/04/05 10:34:04;;;;;;;1.73;1.00;;;8.00;78.30;;;;;;3587124;39;20103;-62
2021/04/05 10:36:46;;;;;;;1.08;0.98;;;8.20;78.50;;;;;;3581780;39;20083;-62
2021/04/05 10:39:13;;;;;;;1.15;1.02;;;8.30;79.10;;;;;;3585027;39;20036;-63
2021/04/05 10:41:47;;;;;;;1.50;1.30;;;8.50;77.60;;;;;;3584177;39;20100;-62
2021/04/05 10:44:14;;;;;;;1.15;1.00;;;8.60;77.10;;;;;;3582155;39;20042;-62
2021/04/05 10:46:48;;;;;;;1.92;1.00;;;8.60;76.50;;;;;;3584889;39;20052;-63
2021/04/05 10:49:18;;;;;;;2.17;1.27;;;8.60;76.50;;;;;;3584348;39;20044;-63
2021/04/05 10:51:51;;;;;;;2.33;1.20;;;8.60;75.80;;;;;;3578571;39;20134;-62
2021/04/05 10:54:29;;;;;;;2.58;1.40;;;8.50;75.00;;;;;;3580265;39;20053;-62
2021/04/05 10:57:00;;;;;;;2.90;1.40;;;8.50;75.80;;;;;;3591004;39;20031;-62
2021/04/05 10:59:45;;;;;;;3.35;1.30;;;8.50;74.80;;;;;;3583790;39;20057;-62
2021/04/05 11:02:33;;;;;;;3.38;0.95;;;8.40;74.20;;;;;;3588535;39;20024;-62
2021/04/05 11:05:05;;;;;;;2.95;1.10;;;8.40;75.20;;;;;;3585087;39;20040;-62
2021/04/05 11:07:32;;;;;;;2.03;1.40;;;8.50;75.40;;;;;;3584929;39;20507;-63
2021/04/05 11:10:01;;;;;;;1.45;1.15;;;8.40;73.50;;;;;;3587038;39;20028;-62
2021/04/05 11:12:43;;;;;;;1.20;1.10;;;8.30;74.10;;;;;;3589314;39;20027;-62
2021/04/05 11:15:11;;;;;;;1.65;0.90;;;8.20;73.90;;;;;;3585796;39;20032;-63
2021/04/05 11:17:41;;;;;;;1.23;0.70;;;8.10;74.50;;;;;;3586346;39;20032;-62
2021/04/05 11:20:11;;;;;;;4.00;1.10;;;8.00;73.40;;;;;;3584675;39;20027;-62
2021/04/05 11:22:39;;;;;;;2.88;0.85;;;7.70;75.40;;;;;;3584963;39;20060;-62
2021/04/05 11:25:10;;;;;;;2.22;0.75;;;7.40;75.00;;;;;;3588791;39;20796;-62
2021/04/05 11:27:46;;;;;;;1.42;0.70;;;7.40;76.70;;;;;;3580669;39;20397;-62
2021/04/05 11:30:22;;;;;;;0.93;0.77;;;7.60;78.80;;;;;;3584603;39;20122;-62
2021/04/05 11:32:52;;;;;;;2.15;0.75;;;7.80;79.60;;;;;;3580642;39;20033;-62
2021/04/05 11:35:21;;;;;;;0.75;0.70;;;8.10;78.30;;;;;;3582859;39;20365;-59
2021/04/05 11:37:51;;;;;;;2.63;0.90;;;8.30;77.30;;;;;;3584044;39;20056;-59
2021/04/05 11:40:20;;;;;;;1.58;0.90;;;8.40;74.40;;;;;;3579117;40;20035;-59
2021/04/05 11:42:49;;;;;;;1.10;0.70;;;8.60;75.60;;;;;;3578415;40;20039;-59
2021/04/05 11:45:43;;;;;;;2.40;0.82;;;8.80;73.30;;;;;;3583514;39;20027;-60
2021/04/05 11:48:16;;;;;;;1.00;0.65;;;8.90;69.80;;;;;;3583497;39;20147;-59
2021/04/05 11:50:43;;;;;;;1.48;0.75;;;8.80;69.50;;;;;;3577834;40;20096;-59
2021/04/05 11:53:19;;;;;;;1.80;0.68;;;8.60;66.40;;;;;;3583030;39;20478;-59
2021/04/05 11:55:46;;;;;;;4.97;1.45;;;8.40;68.40;;;;;;3586171;39;20040;-59
2021/04/05 11:58:20;;;;;;;1.67;0.50;;;8.30;69.80;;;;;;3584719;39;20040;-59
2021/04/05 12:00:52;;;;;;;1.42;0.47;;;8.10;70.30;;;;;;3586694;39;20083;-59
2021/04/05 12:03:40;;;;;;;1.35;0.43;;;8.00;71.00;;;;;;3587512;39;20137;-58
2021/04/05 12:06:11;;;;;;;1.52;0.70;;;7.50;68.00;;;;;;3583123;39;20048;-59
2021/04/05 12:08:47;;;;;;;2.10;0.40;;;7.10;71.60;;;;;;3582285;39;20035;-59
2021/04/05 12:11:14;;;;;;;1.10;0.30;;;7.10;72.30;;;;;;3585518;39;20046;-59
2021/04/05 12:13:48;;;;;;;1.02;0.32;;;7.10;71.70;;;;;;3588519;39;20036;-59
2021/04/05 12:16:23;;;;;;;2.13;0.45;;;7.20;71.80;;;;;;3581459;39;20220;-59
2021/04/05 12:18:52;;;;;;;2.60;0.40;;;7.20;70.60;;;;;;3587043;39;20032;-58
2021/04/05 12:21:18;;;;;;;2.15;1.17;;;7.30;72.00;;;;;;3583538;39;20099;-59
2021/04/05 12:23:57;;;;;;;2.03;0.80;;;7.40;71.60;;;;;;3582400;39;20812;-59
2021/04/05 12:26:28;;;;;;;2.08;0.90;;;7.60;70.50;;;;;;3585761;39;20037;-59
2021/04/05 12:29:00;;;;;;;1.52;0.50;;;7.80;69.90;;;;;;3582624;39;20103;-59
2021/04/05 12:31:26;;;;;;;1.35;0.50;;;8.10;67.70;;;;;;3582145;39;20032;-59
2021/04/05 12:33:55;;;;;;;2.70;0.70;;;8.20;66.20;;;;;;3586024;39;20032;-60
2021/04/05 12:36:29;;;;;;;2.30;0.35;;;8.40;68.50;;;;;;3585811;39;20039;-59
2021/04/05 12:38:55;;;;;;;2.55;0.60;;;8.70;66.80;;;;;;3585837;40;20028;-59
2021/04/05 12:41:21;;;;;;;0.93;0.43;;;8.70;68.10;;;;;;3587696;39;20137;-58
2021/04/05 12:43:51;;;;;;;1.92;0.90;;;8.80;66.50;;;;;;3581362;39;20024;-59
2021/04/05 12:46:18;;;;;;;1.77;1.15;;;9.00;67.10;;;;;;3586753;39;20402;-59
2021/04/05 12:48:45;;;;;;;2.45;1.70;;;9.00;64.80;;;;;;3590764;39;20017;-58
2021/04/05 12:51:11;;;;;;;1.95;0.90;;;9.00;63.20;;;;;;3588806;39;20042;-58
2021/04/05 12:53:39;;;;;;;3.83;2.53;;;9.10;65.00;;;;;;3585933;39;20128;-58
2021/04/05 12:56:13;;;;;;;4.22;1.60;;;9.10;64.40;;;;;;3583810;39;20419;-58
2021/04/05 12:58:40;;;;;;;3.65;2.70;;;9.10;64.00;;;;;;3587227;39;20128;-58
2021/04/05 13:01:06;;;;;;;4.13;2.20;;;9.20;62.70;;;;;;3588792;39;20119;-58
2021/04/05 13:03:44;;;;;;;1.45;0.98;;;9.20;63.40;;;;;;3585838;39;20061;-59
2021/04/05 13:06:12;;;;;;;3.67;2.15;;;9.20;62.80;;;;;;3583954;39;20015;-59
2021/04/05 13:09:06;;;;;;;28.17;14.20;;;9.20;61.00;;;;;;3582066;39;20035;-59
2021/04/05 13:11:37;;;;;;;5.80;3.60;;;9.20;62.80;;;;;;3587098;39;20101;-59
2021/04/05 13:14:10;;;;;;;0.40;0.40;;;9.10;60.30;;;;;;3578431;40;20074;-59
2021/04/05 13:17:08;;;;;;;1.00;0.60;;;8.90;59.60;;;;;;3583329;39;20035;-59
2021/04/05 13:19:41;;;;;;;1.20;1.02;;;8.90;62.20;;;;;;3582965;39;20051;-59
2021/04/05 13:22:16;;;;;;;0.35;0.30;;;8.90;63.00;;;;;;3587049;39;20043;-59
2021/04/05 13:24:51;;;;;;;0.70;0.40;;;8.90;61.50;;;;;;3583366;39;20043;-59